Time;durP1;ratioP1;P1;durP2;ratioP2;P2;SDS_P1;SDS_P2;PMS_P1;PMS_P2;Temp;Humidity;BMP_temperature;BMP_pressure;BME280_temperature;BME280_humidity;BME280_pressure;Samples;Min_cycle;Max_cycle;Signal;HPM_P1;HPM_P2
2022/03/26 00:04:19;;;;;;;27.63;12.95;;;8.30;99.90;;;;;;12428511;28;20054;-80
2022/03/26 00:10:22;;;;;;;27.45;13.02;;;8.10;99.90;;;;;;12442446;28;20050;-81
2022/03/26 00:16:24;;;;;;;24.77;12.80;;;8.10;99.90;;;;;;12440800;28;20085;-79
2022/03/26 00:22:26;;;;;;;25.33;13.48;;;8.00;99.90;;;;;;12430911;28;20169;-79
2022/03/26 00:28:28;;;;;;;25.67;13.43;;;7.90;99.90;;;;;;12425866;28;20061;-79
2022/03/26 00:34:31;;;;;;;24.73;13.38;;;7.90;99.90;;;;;;12427497;28;20049;-80
2022/03/26 00:40:34;;;;;;;26.50;13.50;;;7.80;99.90;;;;;;12422056;28;20116;-79
2022/03/26 00:46:35;;;;;;;28.67;13.55;;;7.80;99.90;;;;;;12427649;28;20106;-80
2022/03/26 00:52:38;;;;;;;24.35;13.70;;;7.80;99.90;;;;;;12425360;28;20042;-80
2022/03/26 00:58:41;;;;;;;29.98;14.07;;;7.70;99.90;;;;;;12429020;28;20689;-80
2022/03/26 01:04:43;;;;;;;29.80;14.93;;;7.30;99.90;;;;;;12428832;28;20136;-79
2022/03/26 01:10:46;;;;;;;31.10;15.50;;;7.00;99.90;;;;;;12431632;28;20050;-80
2022/03/26 01:16:48;;;;;;;27.50;14.90;;;6.70;99.90;;;;;;12426291;28;20623;-80
2022/03/26 01:22:50;;;;;;;27.80;14.95;;;6.70;99.90;;;;;;12428517;28;20105;-81
2022/03/26 01:28:52;;;;;;;27.52;15.77;;;6.60;99.90;;;;;;12443436;28;20041;-81
2022/03/26 01:34:54;;;;;;;32.10;15.25;;;6.80;99.90;;;;;;12426111;28;20111;-80
2022/03/26 01:40:56;;;;;;;34.60;16.80;;;6.80;99.90;;;;;;12424980;28;20512;-79
2022/03/26 01:47:00;;;;;;;32.38;16.35;;;6.60;99.90;;;;;;12429765;28;20037;-80
2022/03/26 01:53:03;;;;;;;38.07;16.37;;;6.60;99.90;;;;;;12427702;28;20042;-79
2022/03/26 01:59:06;;;;;;;33.65;17.20;;;6.60;99.90;;;;;;12425605;28;20058;-80
2022/03/26 02:05:12;;;;;;;26.80;15.77;;;6.60;99.90;;;;;;12421693;28;20054;-80
2022/03/26 02:11:13;;;;;;;30.80;14.80;;;6.70;99.90;;;;;;12417492;28;20041;-81
2022/03/26 02:17:17;;;;;;;31.67;14.90;;;6.70;99.90;;;;;;12425330;28;20108;-80
2022/03/26 02:23:19;;;;;;;26.20;15.03;;;6.60;99.90;;;;;;12423698;28;20119;-79
2022/03/26 02:29:21;;;;;;;30.77;14.32;;;6.50;99.90;;;;;;12424894;28;20042;-79
2022/03/26 02:35:23;;;;;;;27.40;14.07;;;6.40;99.90;;;;;;12431966;28;20053;-80
2022/03/26 02:41:25;;;;;;;26.63;13.35;;;6.40;99.90;;;;;;12434049;28;20082;-80
2022/03/26 02:47:27;;;;;;;23.23;12.63;;;6.40;99.90;;;;;;12446883;28;20081;-80
2022/03/26 02:53:29;;;;;;;30.13;13.57;;;6.30;99.90;;;;;;12441122;28;20049;-81
2022/03/26 02:59:31;;;;;;;32.50;13.63;;;6.10;99.90;;;;;;12433989;28;20054;-80
2022/03/26 03:05:33;;;;;;;29.77;13.65;;;6.00;99.90;;;;;;12422086;28;20141;-79
2022/03/26 03:11:35;;;;;;;29.13;13.98;;;5.90;99.90;;;;;;12414495;28;20948;-80
2022/03/26 03:17:38;;;;;;;31.45;14.23;;;5.70;99.90;;;;;;12414009;28;20130;-79
2022/03/26 03:23:40;;;;;;;31.85;14.90;;;5.70;99.90;;;;;;12414335;28;20057;-79
2022/03/26 03:29:43;;;;;;;28.80;13.45;;;6.00;99.90;;;;;;12414103;28;20115;-81
2022/03/26 03:35:45;;;;;;;31.33;14.38;;;5.90;99.90;;;;;;12410060;28;20052;-79
2022/03/26 03:41:46;;;;;;;28.50;14.55;;;5.70;99.90;;;;;;12405054;28;20050;-80
2022/03/26 03:47:48;;;;;;;32.35;14.45;;;5.60;99.90;;;;;;12411234;28;20117;-80
2022/03/26 03:53:50;;;;;;;31.48;15.23;;;5.70;99.90;;;;;;12410378;28;20046;-80
2022/03/26 03:59:52;;;;;;;32.50;14.15;;;5.50;99.90;;;;;;12408084;28;20057;-80
2022/03/26 04:05:54;;;;;;;30.70;14.82;;;5.50;99.90;;;;;;12425797;28;20042;-80
2022/03/26 04:11:55;;;;;;;25.55;14.80;;;5.40;99.90;;;;;;12435112;28;20046;-80
2022/03/26 04:17:57;;;;;;;29.88;15.55;;;5.30;99.90;;;;;;12438388;28;20058;-79
2022/03/26 04:23:59;;;;;;;31.83;15.50;;;5.10;99.90;;;;;;12442433;28;20603;-80
2022/03/26 04:30:02;;;;;;;33.70;15.57;;;5.00;99.90;;;;;;12465119;28;20081;-79
2022/03/26 04:36:04;;;;;;;35.47;16.33;;;4.90;99.90;;;;;;12431867;28;20064;-79
2022/03/26 04:42:06;;;;;;;31.73;16.40;;;4.90;99.90;;;;;;12431760;28;20099;-79
2022/03/26 04:48:08;;;;;;;32.40;15.88;;;4.90;99.90;;;;;;12425829;28;20050;-79
2022/03/26 04:54:10;;;;;;;40.33;17.17;;;5.10;99.90;;;;;;12431424;28;20091;-79
2022/03/26 05:00:15;;;;;;;34.00;16.40;;;5.10;99.90;;;;;;12425583;28;20110;-80
2022/03/26 05:06:17;;;;;;;36.57;16.57;;;5.30;99.90;;;;;;12423768;28;20445;-79
2022/03/26 05:12:19;;;;;;;38.20;17.33;;;5.30;99.90;;;;;;12424846;28;20413;-78
2022/03/26 05:18:21;;;;;;;37.55;17.48;;;5.30;99.90;;;;;;12429961;28;20053;-79
2022/03/26 05:24:22;;;;;;;36.17;17.70;;;5.20;99.90;;;;;;12430102;28;20088;-79
2022/03/26 05:30:24;;;;;;;36.35;17.13;;;5.30;99.90;;;;;;12429390;28;20456;-80
2022/03/26 05:36:26;;;;;;;35.85;17.20;;;5.50;99.90;;;;;;12441789;28;20127;-80
2022/03/26 05:42:28;;;;;;;32.63;16.25;;;5.40;99.90;;;;;;12431054;28;20463;-80
2022/03/26 05:48:30;;;;;;;35.70;16.63;;;5.50;99.90;;;;;;12426350;28;20068;-80
2022/03/26 05:54:32;;;;;;;34.33;16.77;;;5.50;99.90;;;;;;12429519;28;20045;-80
2022/03/26 06:00:34;;;;;;;37.22;17.17;;;5.70;99.90;;;;;;12426707;28;20093;-81
2022/03/26 06:06:37;;;;;;;35.83;16.15;;;5.70;99.90;;;;;;12429975;28;20501;-81
2022/03/26 06:12:39;;;;;;;40.42;17.10;;;5.80;99.90;;;;;;12425337;28;20046;-81
2022/03/26 06:18:41;;;;;;;31.73;16.52;;;5.60;99.90;;;;;;12429267;28;20119;-81
2022/03/26 06:24:43;;;;;;;34.40;16.95;;;5.60;99.90;;;;;;12425394;28;20111;-81
2022/03/26 06:30:46;;;;;;;34.42;17.23;;;6.20;99.90;;;;;;12429019;28;20565;-80
2022/03/26 06:36:48;;;;;;;35.17;17.85;;;6.50;99.90;;;;;;12443894;28;20088;-81
2022/03/26 06:42:50;;;;;;;37.13;18.88;;;6.90;99.90;;;;;;12437192;28;20132;-80
2022/03/26 06:48:51;;;;;;;39.25;18.48;;;7.30;99.90;;;;;;12435122;28;20133;-80
2022/03/26 06:54:53;;;;;;;30.55;16.67;;;7.60;99.90;;;;;;12435168;28;20053;-81
2022/03/26 07:00:55;;;;;;;36.67;18.50;;;7.80;99.90;;;;;;12443147;28;20746;-81
2022/03/26 07:06:57;;;;;;;41.45;21.08;;;7.90;99.90;;;;;;12433122;28;20062;-81
2022/03/26 07:13:05;;;;;;;41.03;19.80;;;7.80;99.90;;;;;;12433572;28;20054;-81
2022/03/26 07:19:07;;;;;;;47.33;21.65;;;7.90;99.90;;;;;;12449625;28;20111;-81
2022/03/26 07:25:09;;;;;;;44.45;23.92;;;8.00;99.90;;;;;;12452162;28;20050;-81
2022/03/26 07:31:11;;;;;;;49.05;26.27;;;8.20;99.90;;;;;;12445676;28;20432;-81
2022/03/26 07:37:13;;;;;;;51.58;26.45;;;8.30;99.90;;;;;;12436353;28;20053;-82
2022/03/26 07:43:14;;;;;;;47.50;25.50;;;8.30;99.90;;;;;;12435901;28;20053;-80
2022/03/26 07:49:16;;;;;;;47.28;26.38;;;8.70;99.90;;;;;;12438606;28;21105;-80
2022/03/26 07:55:19;;;;;;;48.05;26.10;;;9.00;99.90;;;;;;12437401;28;20141;-80
2022/03/26 08:01:21;;;;;;;52.33;28.08;;;9.30;99.90;;;;;;12445739;28;20061;-81
2022/03/26 08:07:23;;;;;;;53.40;28.70;;;9.50;99.90;;;;;;12429256;28;20045;-81
2022/03/26 08:13:25;;;;;;;50.67;25.80;;;9.90;99.90;;;;;;12428088;28;20046;-82
2022/03/26 08:19:28;;;;;;;46.97;26.08;;;10.10;99.90;;;;;;12433008;28;20139;-82
2022/03/26 08:31:50;;;;;;;48.22;24.50;;;10.50;99.90;;;;;;12433056;28;20526;-82
2022/03/26 08:37:52;;;;;;;44.17;23.15;;;10.70;99.90;;;;;;12443228;28;20049;-82
2022/03/26 08:43:53;;;;;;;45.13;22.77;;;10.90;99.90;;;;;;12441003;28;20046;-81
2022/03/26 08:49:55;;;;;;;45.90;22.92;;;11.20;99.90;;;;;;12430097;28;20136;-82
2022/03/26 08:55:57;;;;;;;43.08;22.42;;;11.40;99.90;;;;;;12423049;28;20596;-82
2022/03/26 09:01:59;;;;;;;38.03;20.95;;;11.60;99.90;;;;;;12430537;28;20053;-80
2022/03/26 09:08:01;;;;;;;37.33;20.40;;;11.80;99.90;;;;;;12426163;28;20169;-82
2022/03/26 09:14:04;;;;;;;38.80;21.25;;;12.10;99.90;;;;;;12432294;28;20041;-81
2022/03/26 09:20:07;;;;;;;34.58;18.30;;;12.20;99.90;;;;;;12426920;28;20080;-80
2022/03/26 09:26:10;;;;;;;36.50;20.27;;;12.60;99.90;;;;;;12427594;28;20069;-81
2022/03/26 09:32:12;;;;;;;34.42;19.88;;;12.50;99.90;;;;;;12425419;28;20088;-82
2022/03/26 09:38:14;;;;;;;34.25;20.27;;;12.60;99.90;;;;;;12424091;28;20103;-81
2022/03/26 09:44:17;;;;;;;28.80;18.15;;;13.00;99.90;;;;;;12428532;28;20053;-82
2022/03/26 09:50:21;;;;;;;29.45;16.90;;;13.10;99.90;;;;;;12424028;28;20049;-81
2022/03/26 09:56:24;;;;;;;34.03;17.67;;;13.30;99.90;;;;;;12428432;28;20058;-82
2022/03/26 10:02:26;;;;;;;29.50;14.60;;;13.60;99.90;;;;;;12446314;28;20042;-82
2022/03/26 10:08:28;;;;;;;30.08;15.57;;;13.80;99.90;;;;;;12442289;28;20049;-80
2022/03/26 10:14:41;;;;;;;25.20;14.77;;;14.00;99.90;;;;;;12420641;28;20049;-82
2022/03/26 10:20:57;;;;;;;23.95;13.18;;;14.20;99.90;;;;;;12415755;28;20050;-80
2022/03/26 10:27:11;;;;;;;23.67;13.88;;;14.30;99.90;;;;;;12426896;28;20144;-80
2022/03/26 10:33:20;;;;;;;20.95;12.90;;;14.40;99.90;;;;;;12424713;28;20642;-82
2022/03/26 10:39:27;;;;;;;16.75;10.43;;;14.70;99.90;;;;;;12425956;28;20061;-80
2022/03/26 10:45:30;;;;;;;21.83;12.20;;;14.90;99.90;;;;;;12425295;28;20058;-81
2022/03/26 10:51:38;;;;;;;22.80;11.63;;;15.10;99.90;;;;;;12435792;28;20049;-82
2022/03/26 10:57:45;;;;;;;22.17;12.82;;;15.20;99.90;;;;;;12432209;28;20046;-80
2022/03/26 11:03:47;;;;;;;28.75;13.98;;;15.40;99.90;;;;;;12434049;28;20053;-83
2022/03/26 11:09:50;;;;;;;22.35;14.32;;;15.20;99.90;;;;;;12436846;28;20422;-80
2022/03/26 11:15:57;;;;;;;24.13;14.25;;;15.50;99.90;;;;;;12440707;28;20048;-80
2022/03/26 11:22:23;;;;;;;24.70;14.07;;;15.70;99.90;;;;;;12442762;28;20046;-82
2022/03/26 11:28:46;;;;;;;28.27;14.50;;;15.50;99.90;;;;;;12450203;28;20510;-80
2022/03/26 11:35:08;;;;;;;25.80;14.15;;;15.80;99.90;;;;;;12432687;28;20092;-81
2022/03/26 11:41:09;;;;;;;17.95;12.07;;;15.90;99.90;;;;;;12442263;28;20042;-80
2022/03/26 11:53:36;;;;;;;20.53;12.63;;;16.00;99.90;;;;;;12430349;28;20120;-82
2022/03/26 11:59:41;;;;;;;18.38;10.48;;;16.30;99.90;;;;;;12432303;28;20080;-80
2022/03/26 12:12:06;;;;;;;15.27;10.07;;;16.50;99.90;;;;;;12436039;28;20053;-80
2022/03/26 12:18:09;;;;;;;17.73;10.27;;;16.70;99.90;;;;;;12416163;28;20061;-80
2022/03/26 12:24:17;;;;;;;15.17;10.00;;;16.90;99.90;;;;;;12422695;28;20053;-83
2022/03/26 12:30:19;;;;;;;18.30;10.68;;;16.90;99.90;;;;;;12432332;28;20085;-81
2022/03/26 12:36:22;;;;;;;18.77;11.27;;;16.90;99.90;;;;;;12432471;28;20092;-83
2022/03/26 12:42:25;;;;;;;21.30;12.05;;;17.00;99.90;;;;;;12434146;28;20510;-84
2022/03/26 12:48:29;;;;;;;21.17;12.30;;;17.30;99.90;;;;;;12470208;28;20054;-81
2022/03/26 12:54:31;;;;;;;21.48;14.07;;;17.50;99.90;;;;;;12446171;28;20046;-83
2022/03/26 13:00:39;;;;;;;22.73;13.60;;;17.40;99.90;;;;;;12428662;28;20111;-80
2022/03/26 13:06:41;;;;;;;22.20;14.20;;;17.30;99.90;;;;;;12431247;28;20045;-80
2022/03/26 13:12:47;;;;;;;24.60;13.52;;;17.50;99.90;;;;;;12430404;28;20099;-83
2022/03/26 13:19:12;;;;;;;21.08;12.48;;;17.70;99.90;;;;;;12430222;28;20045;-81
2022/03/26 13:25:18;;;;;;;21.25;11.52;;;17.60;99.90;;;;;;12429699;28;20057;-83
2022/03/26 13:31:22;;;;;;;20.40;12.27;;;17.40;99.90;;;;;;12443148;28;20124;-81
2022/03/26 13:37:24;;;;;;;19.33;11.02;;;17.30;99.90;;;;;;12426934;28;20136;-80
2022/03/26 13:43:26;;;;;;;23.00;12.30;;;17.20;99.90;;;;;;12429671;28;21875;-83
2022/03/26 13:49:33;;;;;;;16.17;10.75;;;17.30;99.90;;;;;;12430546;28;20042;-80
2022/03/26 13:55:37;;;;;;;17.00;10.93;;;17.20;99.90;;;;;;12429919;28;20099;-83
2022/03/26 14:01:40;;;;;;;19.20;12.10;;;17.50;99.90;;;;;;12429631;28;20469;-80
2022/03/26 14:07:42;;;;;;;14.85;9.88;;;17.60;99.90;;;;;;12424240;28;20046;-80
2022/03/26 14:13:45;;;;;;;16.63;11.60;;;17.60;99.90;;;;;;12435848;28;20072;-81
2022/03/26 14:19:49;;;;;;;17.70;11.05;;;17.60;99.90;;;;;;12429746;28;20127;-81
2022/03/26 14:25:51;;;;;;;14.30;9.93;;;17.40;99.90;;;;;;12426548;28;20054;-80
2022/03/26 14:31:52;;;;;;;16.75;10.35;;;17.20;99.90;;;;;;12429177;28;20168;-83
2022/03/26 14:37:57;;;;;;;21.08;11.88;;;17.20;99.90;;;;;;12426478;28;20045;-81
2022/03/26 14:43:58;;;;;;;;;;;17.20;99.90;;;;;;12439375;28;20068;-83
2022/03/26 14:50:01;;;;;;;21.75;12.82;;;17.30;99.90;;;;;;12441810;28;19925;-82
2022/03/26 14:56:04;;;;;;;18.98;12.02;;;17.40;99.90;;;;;;12436138;28;20120;-80
2022/03/26 15:02:07;;;;;;;20.63;12.00;;;17.20;99.90;;;;;;12434140;28;20050;-81
2022/03/26 15:08:09;;;;;;;23.07;12.73;;;17.10;99.90;;;;;;12432631;28;20453;-80
2022/03/26 15:14:10;;;;;;;19.52;12.57;;;16.90;99.90;;;;;;12433814;28;20048;-81
2022/03/26 15:20:12;;;;;;;22.95;13.32;;;16.60;99.90;;;;;;12440331;28;20049;-83
2022/03/26 15:26:14;;;;;;;22.85;12.40;;;16.60;99.90;;;;;;12434768;28;20049;-81
2022/03/26 15:32:17;;;;;;;22.25;13.68;;;16.40;99.90;;;;;;12441872;28;20041;-82
2022/03/26 15:38:23;;;;;;;22.35;12.77;;;16.40;99.90;;;;;;12451864;28;20057;-83
2022/03/26 15:44:25;;;;;;;20.42;11.00;;;16.20;99.90;;;;;;12453058;28;20503;-83
2022/03/26 15:50:26;;;;;;;16.73;10.98;;;16.00;99.90;;;;;;12437376;28;20077;-83
2022/03/26 15:56:29;;;;;;;15.65;10.45;;;15.90;99.90;;;;;;12430978;28;20066;-83
2022/03/26 16:02:30;;;;;;;15.90;10.73;;;15.80;99.90;;;;;;12434861;28;20574;-80
2022/03/26 16:08:33;;;;;;;18.38;11.05;;;15.80;99.90;;;;;;12433348;28;20057;-82
2022/03/26 16:14:35;;;;;;;15.90;11.35;;;15.70;99.90;;;;;;12428907;28;20046;-80
2022/03/26 16:20:36;;;;;;;20.77;11.90;;;15.50;99.90;;;;;;12436591;28;20058;-83
2022/03/26 16:26:39;;;;;;;19.13;12.40;;;15.40;99.90;;;;;;12433270;28;20130;-82
2022/03/26 16:32:41;;;;;;;20.55;12.45;;;15.40;99.90;;;;;;12431397;28;20056;-80
2022/03/26 16:38:44;;;;;;;19.60;11.73;;;15.30;99.90;;;;;;12434671;28;20103;-83
2022/03/26 16:44:46;;;;;;;17.00;11.82;;;15.30;99.90;;;;;;12425148;28;20042;-82
2022/03/26 16:50:48;;;;;;;18.77;11.82;;;15.20;99.90;;;;;;12406862;28;20052;-83
2022/03/26 16:56:50;;;;;;;19.42;11.70;;;15.10;99.90;;;;;;12453071;28;20441;-83
2022/03/26 17:02:53;;;;;;;21.23;11.43;;;15.00;99.90;;;;;;12416545;28;20061;-83
2022/03/26 17:08:55;;;;;;;13.45;9.98;;;14.90;99.90;;;;;;12424991;28;20095;-82
2022/03/26 17:14:57;;;;;;;15.52;8.35;;;14.80;99.90;;;;;;12427027;28;20049;-79
2022/03/26 17:20:59;;;;;;;13.88;8.90;;;14.70;99.90;;;;;;12416437;28;20045;-82
2022/03/26 17:27:01;;;;;;;10.68;7.40;;;14.60;99.90;;;;;;12436717;28;21015;-80
2022/03/26 17:33:03;;;;;;;11.13;6.97;;;14.40;99.90;;;;;;12428651;28;20050;-80
2022/03/26 17:39:05;;;;;;;12.98;6.43;;;14.40;99.90;;;;;;12438166;28;20056;-82
2022/03/26 17:45:11;;;;;;;9.75;5.65;;;14.30;99.90;;;;;;12428885;28;20045;-79
2022/03/26 17:51:13;;;;;;;10.82;5.78;;;14.20;99.90;;;;;;12443392;28;20104;-80
2022/03/26 17:57:15;;;;;;;8.93;5.03;;;14.10;99.90;;;;;;12428186;28;20444;-79
2022/03/26 18:03:17;;;;;;;8.30;4.90;;;14.00;99.90;;;;;;12421759;28;20067;-79
2022/03/26 18:09:20;;;;;;;9.20;4.78;;;14.00;99.90;;;;;;12427404;28;20061;-82
2022/03/26 18:15:22;;;;;;;7.70;4.57;;;13.90;99.90;;;;;;12439170;28;20045;-79
2022/03/26 18:21:24;;;;;;;8.43;4.45;;;13.80;99.90;;;;;;12468339;28;20089;-80
2022/03/26 18:27:26;;;;;;;6.50;4.72;;;13.80;99.90;;;;;;12439464;28;20531;-82
2022/03/26 18:33:28;;;;;;;7.80;4.50;;;13.60;99.90;;;;;;12440626;28;20050;-82
2022/03/26 18:39:33;;;;;;;9.90;5.15;;;13.60;99.90;;;;;;12426063;28;20058;-80
2022/03/26 18:45:34;;;;;;;;;;;13.50;99.90;;;;;;12448492;28;20054;-81
2022/03/26 18:51:38;;;;;;;11.43;4.43;;;13.50;99.90;;;;;;12447115;28;19942;-80
2022/03/26 18:57:40;;;;;;;7.47;4.65;;;13.50;99.90;;;;;;12436183;28;20116;-81
2022/03/26 19:03:42;;;;;;;8.80;4.07;;;13.30;99.90;;;;;;12434989;28;20049;-79
2022/03/26 19:09:44;;;;;;;7.45;4.05;;;13.30;99.90;;;;;;12436171;28;20457;-79
2022/03/26 19:15:46;;;;;;;8.18;4.82;;;13.20;99.90;;;;;;12442584;28;20094;-79
2022/03/26 19:21:48;;;;;;;9.55;4.93;;;13.00;99.90;;;;;;12447673;28;20049;-81
2022/03/26 19:27:50;;;;;;;5.43;3.38;;;12.90;99.90;;;;;;12434830;28;20057;-79
2022/03/26 19:33:52;;;;;;;7.40;3.35;;;12.90;99.90;;;;;;12434766;28;20049;-81
2022/03/26 19:39:55;;;;;;;7.38;3.40;;;12.80;99.90;;;;;;12432789;28;21120;-80
2022/03/26 19:45:57;;;;;;;8.55;3.25;;;12.60;99.90;;;;;;12434125;28;20041;-79
2022/03/26 19:52:05;;;;;;;7.63;3.65;;;12.40;99.90;;;;;;12445673;28;20627;-79
2022/03/26 19:58:10;;;;;;;7.32;3.40;;;12.20;99.90;;;;;;12430284;28;20426;-82
2022/03/26 20:04:12;;;;;;;8.48;4.25;;;12.00;99.90;;;;;;12437074;28;20079;-82
2022/03/26 20:10:14;;;;;;;7.45;3.53;;;12.00;99.90;;;;;;12427550;28;20053;-82
2022/03/26 20:22:37;;;;;;;7.40;3.92;;;11.80;99.90;;;;;;12429965;28;20046;-80
2022/03/26 20:28:39;;;;;;;6.13;3.95;;;11.60;99.90;;;;;;12429900;28;20054;-81
2022/03/26 20:34:41;;;;;;;6.43;3.47;;;11.50;99.90;;;;;;12431156;28;20049;-80
2022/03/26 20:40:44;;;;;;;7.55;4.40;;;11.30;99.90;;;;;;12428166;28;20418;-82
2022/03/26 20:46:46;;;;;;;7.78;4.43;;;11.20;99.90;;;;;;12438127;28;20056;-82
2022/03/26 20:52:50;;;;;;;6.65;4.63;;;11.10;99.90;;;;;;12433608;28;20565;-81
2022/03/26 20:58:52;;;;;;;7.55;4.65;;;11.10;99.90;;;;;;12433937;28;20449;-82
2022/03/26 21:04:54;;;;;;;8.90;5.47;;;11.00;99.90;;;;;;12437356;28;20046;-81
2022/03/26 21:10:58;;;;;;;12.48;6.45;;;10.90;99.90;;;;;;12454149;28;20049;-79
2022/03/26 21:17:00;;;;;;;10.10;7.60;;;10.70;99.90;;;;;;12431297;28;20110;-81
2022/03/26 21:23:03;;;;;;;11.55;7.28;;;10.50;99.90;;;;;;12430398;28;20496;-82
2022/03/26 21:29:05;;;;;;;11.65;7.43;;;10.30;99.90;;;;;;12433010;28;20141;-80
2022/03/26 21:35:07;;;;;;;11.73;7.80;;;10.20;99.90;;;;;;12434818;28;20165;-81
2022/03/26 21:41:09;;;;;;;15.35;10.32;;;10.20;99.90;;;;;;12428117;28;20042;-79
2022/03/26 21:47:12;;;;;;;16.58;11.82;;;10.20;99.90;;;;;;12426750;28;20045;-79
2022/03/26 21:53:16;;;;;;;19.23;12.32;;;10.20;99.90;;;;;;12426658;28;20053;-82
2022/03/26 21:59:17;;;;;;;16.92;11.80;;;10.00;99.90;;;;;;12432691;28;20049;-80
2022/03/26 22:05:19;;;;;;;16.00;12.07;;;9.90;99.90;;;;;;12425402;28;20053;-79
2022/03/26 22:11:26;;;;;;;16.73;10.65;;;9.90;99.90;;;;;;12425784;28;20154;-81
2022/03/26 22:17:29;;;;;;;18.15;12.60;;;9.90;99.90;;;;;;12427859;28;20120;-78
2022/03/26 22:23:31;;;;;;;16.98;12.30;;;9.60;99.90;;;;;;12427263;28;20465;-79
2022/03/26 22:29:33;;;;;;;19.05;13.30;;;9.30;99.90;;;;;;12467097;28;20050;-82
2022/03/26 22:35:35;;;;;;;19.02;13.57;;;9.20;99.90;;;;;;12443191;28;20050;-81
2022/03/26 22:41:38;;;;;;;21.23;14.85;;;9.00;99.90;;;;;;12425755;28;20042;-81
2022/03/26 22:47:41;;;;;;;21.35;15.10;;;8.70;99.90;;;;;;12422564;28;20184;-81
2022/03/26 22:53:43;;;;;;;20.75;15.23;;;8.80;99.90;;;;;;12422172;28;20124;-81
2022/03/26 22:59:45;;;;;;;22.58;14.73;;;8.90;99.90;;;;;;12426640;28;20162;-79
2022/03/26 23:05:47;;;;;;;24.35;16.50;;;8.90;99.90;;;;;;12427808;28;20095;-79
2022/03/26 23:11:49;;;;;;;26.55;16.67;;;8.90;99.90;;;;;;12435026;28;20046;-80
2022/03/26 23:17:51;;;;;;;30.20;19.02;;;9.20;99.90;;;;;;12431010;28;20468;-81
2022/03/26 23:23:54;;;;;;;32.65;20.70;;;9.10;99.90;;;;;;12436959;28;20110;-81
2022/03/26 23:29:56;;;;;;;32.80;20.50;;;9.20;99.90;;;;;;12434177;28;20045;-78
2022/03/26 23:35:58;;;;;;;32.85;19.70;;;9.20;99.90;;;;;;12435188;28;20071;-81
2022/03/26 23:42:01;;;;;;;29.88;18.05;;;8.80;99.90;;;;;;12446221;28;20064;-80
2022/03/26 23:48:03;;;;;;;24.25;16.00;;;8.70;99.90;;;;;;12456803;28;20561;-80
2022/03/26 23:54:06;;;;;;;25.95;16.50;;;8.70;99.90;;;;;;12438271;28;20069;-81
